sensor_id;sensor_type;location;lat;lon;timestamp;temperature;humidity
65972;SHT31;52726;48.852;9.152;2022-11-20T00:00:23;4.18;99.04
65972;SHT31;52726;48.852;9.152;2022-11-20T00:02:49;4.17;98.94
65972;SHT31;52726;48.852;9.152;2022-11-20T00:05:14;4.22;99.05
65972;SHT31;52726;48.852;9.152;2022-11-20T00:07:39;4.22;99.05
65972;SHT31;52726;48.852;9.152;2022-11-20T00:10:05;4.27;99.17
65972;SHT31;52726;48.852;9.152;2022-11-20T00:12:31;4.28;99.04
65972;SHT31;52726;48.852;9.152;2022-11-20T00:14:56;4.32;99.14
65972;SHT31;52726;48.852;9.152;2022-11-20T00:17:21;4.35;99.07
65972;SHT31;52726;48.852;9.152;2022-11-20T00:19:47;4.35;98.97
65972;SHT31;52726;48.852;9.152;2022-11-20T00:22:12;4.35;98.90
65972;SHT31;52726;48.852;9.152;2022-11-20T00:24:37;4.38;98.94
65972;SHT31;52726;48.852;9.152;2022-11-20T00:27:03;4.40;98.94
65972;SHT31;52726;48.852;9.152;2022-11-20T00:29:28;4.38;98.76
65972;SHT31;52726;48.852;9.152;2022-11-20T00:31:54;4.37;98.79
65972;SHT31;52726;48.852;9.152;2022-11-20T00:34:19;4.38;98.67
65972;SHT31;52726;48.852;9.152;2022-11-20T00:36:44;4.38;98.90
65972;SHT31;52726;48.852;9.152;2022-11-20T00:39:10;4.40;98.99
65972;SHT31;52726;48.852;9.152;2022-11-20T00:41:35;4.45;99.02
65972;SHT31;52726;48.852;9.152;2022-11-20T00:44:00;4.42;98.82
65972;SHT31;52726;48.852;9.152;2022-11-20T00:46:27;4.48;98.96
65972;SHT31;52726;48.852;9.152;2022-11-20T00:48:53;4.46;98.89
65972;SHT31;52726;48.852;9.152;2022-11-20T00:51:21;4.48;98.88
65972;SHT31;52726;48.852;9.152;2022-11-20T00:53:47;4.48;98.84
65972;SHT31;52726;48.852;9.152;2022-11-20T00:56:15;4.48;98.91
65972;SHT31;52726;48.852;9.152;2022-11-20T00:58:42;4.48;98.90
65972;SHT31;52726;48.852;9.152;2022-11-20T01:01:13;4.48;98.85
65972;SHT31;52726;48.852;9.152;2022-11-20T01:03:40;4.49;98.80
65972;SHT31;52726;48.852;9.152;2022-11-20T01:06:14;4.48;98.64
65972;SHT31;52726;48.852;9.152;2022-11-20T01:08:41;4.45;98.72
65972;SHT31;52726;48.852;9.152;2022-11-20T01:11:09;4.41;98.72
65972;SHT31;52726;48.852;9.152;2022-11-20T01:13:35;4.38;98.75
65972;SHT31;52726;48.852;9.152;2022-11-20T01:16:28;4.37;98.85
65972;SHT31;52726;48.852;9.152;2022-11-20T01:18:56;4.35;98.87
65972;SHT31;52726;48.852;9.152;2022-11-20T01:21:24;4.35;98.86
65972;SHT31;52726;48.852;9.152;2022-11-20T01:23:51;4.30;98.82
65972;SHT31;52726;48.852;9.152;2022-11-20T01:26:21;4.32;99.06
65972;SHT31;52726;48.852;9.152;2022-11-20T01:28:48;4.31;98.97
65972;SHT31;52726;48.852;9.152;2022-11-20T01:33:41;4.31;98.89
65972;SHT31;52726;48.852;9.152;2022-11-20T01:36:07;4.30;98.97
65972;SHT31;52726;48.852;9.152;2022-11-20T01:38:32;4.31;98.98
65972;SHT31;52726;48.852;9.152;2022-11-20T01:40:58;4.31;98.81
65972;SHT31;52726;48.852;9.152;2022-11-20T01:43:24;4.30;98.94
65972;SHT31;52726;48.852;9.152;2022-11-20T01:46:15;4.24;98.62
65972;SHT31;52726;48.852;9.152;2022-11-20T01:48:54;4.27;98.88
65972;SHT31;52726;48.852;9.152;2022-11-20T01:51:35;4.28;98.75
65972;SHT31;52726;48.852;9.152;2022-11-20T01:54:05;4.28;98.76
65972;SHT31;52726;48.852;9.152;2022-11-20T01:56:37;4.27;98.78
65972;SHT31;52726;48.852;9.152;2022-11-20T01:59:05;4.30;98.84
65972;SHT31;52726;48.852;9.152;2022-11-20T02:01:32;4.31;98.72
65972;SHT31;52726;48.852;9.152;2022-11-20T02:03:58;4.32;98.88
65972;SHT31;52726;48.852;9.152;2022-11-20T02:06:31;4.35;98.92
65972;SHT31;52726;48.852;9.152;2022-11-20T02:08:58;4.41;98.89
65972;SHT31;52726;48.852;9.152;2022-11-20T02:11:23;4.42;98.93
65972;SHT31;52726;48.852;9.152;2022-11-20T02:13:49;4.46;98.92
65972;SHT31;52726;48.852;9.152;2022-11-20T02:16:19;4.45;98.76
65972;SHT31;52726;48.852;9.152;2022-11-20T02:18:45;4.46;98.83
65972;SHT31;52726;48.852;9.152;2022-11-20T02:21:35;4.49;98.85
65972;SHT31;52726;48.852;9.152;2022-11-20T02:24:17;4.52;98.90
65972;SHT31;52726;48.852;9.152;2022-11-20T02:26:59;4.55;98.71
65972;SHT31;52726;48.852;9.152;2022-11-20T02:29:40;4.58;98.81
65972;SHT31;52726;48.852;9.152;2022-11-20T02:32:06;4.59;98.63
65972;SHT31;52726;48.852;9.152;2022-11-20T02:34:32;4.59;98.53
65972;SHT31;52726;48.852;9.152;2022-11-20T02:36:58;4.61;98.08
65972;SHT31;52726;48.852;9.152;2022-11-20T02:39:26;4.65;97.86
65972;SHT31;52726;48.852;9.152;2022-11-20T02:41:56;4.68;97.30
65972;SHT31;52726;48.852;9.152;2022-11-20T02:44:21;4.72;96.91
65972;SHT31;52726;48.852;9.152;2022-11-20T02:46:47;4.76;96.51
65972;SHT31;52726;48.852;9.152;2022-11-20T02:49:12;4.77;96.38
65972;SHT31;52726;48.852;9.152;2022-11-20T02:51:37;4.79;96.05
65972;SHT31;52726;48.852;9.152;2022-11-20T02:54:04;4.81;95.90
65972;SHT31;52726;48.852;9.152;2022-11-20T02:56:29;4.83;96.11
65972;SHT31;52726;48.852;9.152;2022-11-20T02:58:55;4.86;96.29
65972;SHT31;52726;48.852;9.152;2022-11-20T03:01:21;4.86;96.29
65972;SHT31;52726;48.852;9.152;2022-11-20T03:03:46;4.89;96.39
65972;SHT31;52726;48.852;9.152;2022-11-20T03:06:14;4.90;96.05
65972;SHT31;52726;48.852;9.152;2022-11-20T03:08:39;4.86;95.53
65972;SHT31;52726;48.852;9.152;2022-11-20T03:11:06;4.89;95.15
65972;SHT31;52726;48.852;9.152;2022-11-20T03:13:33;4.86;94.34
65972;SHT31;52726;48.852;9.152;2022-11-20T03:15:58;4.89;94.40
65972;SHT31;52726;48.852;9.152;2022-11-20T03:18:29;4.90;94.33
65972;SHT31;52726;48.852;9.152;2022-11-20T03:20:57;4.90;94.07
65972;SHT31;52726;48.852;9.152;2022-11-20T03:23:23;4.89;93.95
65972;SHT31;52726;48.852;9.152;2022-11-20T03:25:48;4.89;94.02
65972;SHT31;52726;48.852;9.152;2022-11-20T03:28:14;4.87;94.56
65972;SHT31;52726;48.852;9.152;2022-11-20T03:30:39;4.90;94.55
65972;SHT31;52726;48.852;9.152;2022-11-20T03:33:04;4.89;94.68
65972;SHT31;52726;48.852;9.152;2022-11-20T03:35:30;4.86;94.82
65972;SHT31;52726;48.852;9.152;2022-11-20T03:37:57;4.86;94.88
65972;SHT31;52726;48.852;9.152;2022-11-20T03:40:22;4.86;94.97
65972;SHT31;52726;48.852;9.152;2022-11-20T03:42:47;4.84;94.85
65972;SHT31;52726;48.852;9.152;2022-11-20T03:45:14;4.83;94.43
65972;SHT31;52726;48.852;9.152;2022-11-20T03:47:41;4.81;94.12
65972;SHT31;52726;48.852;9.152;2022-11-20T03:50:07;4.81;94.08
65972;SHT31;52726;48.852;9.152;2022-11-20T03:52:32;4.79;93.64
65972;SHT31;52726;48.852;9.152;2022-11-20T03:54:57;4.76;93.74
65972;SHT31;52726;48.852;9.152;2022-11-20T03:57:23;4.77;94.13
65972;SHT31;52726;48.852;9.152;2022-11-20T03:59:48;4.76;94.06
65972;SHT31;52726;48.852;9.152;2022-11-20T04:02:13;4.76;94.14
65972;SHT31;52726;48.852;9.152;2022-11-20T04:04:39;4.73;93.78
65972;SHT31;52726;48.852;9.152;2022-11-20T04:07:04;4.72;93.56
65972;SHT31;52726;48.852;9.152;2022-11-20T04:09:29;4.70;94.53
65972;SHT31;52726;48.852;9.152;2022-11-20T04:11:55;4.73;94.29
65972;SHT31;52726;48.852;9.152;2022-11-20T04:14:20;4.70;94.08
65972;SHT31;52726;48.852;9.152;2022-11-20T04:16:45;4.68;93.84
65972;SHT31;52726;48.852;9.152;2022-11-20T04:19:13;4.70;94.06
65972;SHT31;52726;48.852;9.152;2022-11-20T04:21:39;4.70;93.80
65972;SHT31;52726;48.852;9.152;2022-11-20T04:24:06;4.72;93.69
65972;SHT31;52726;48.852;9.152;2022-11-20T04:26:31;4.72;93.96
65972;SHT31;52726;48.852;9.152;2022-11-20T04:28:57;4.73;93.82
65972;SHT31;52726;48.852;9.152;2022-11-20T04:31:28;4.73;94.22
65972;SHT31;52726;48.852;9.152;2022-11-20T04:33:53;4.72;93.86
65972;SHT31;52726;48.852;9.152;2022-11-20T04:36:22;4.69;93.91
65972;SHT31;52726;48.852;9.152;2022-11-20T04:38:58;4.68;93.73
65972;SHT31;52726;48.852;9.152;2022-11-20T04:41:26;4.69;94.29
65972;SHT31;52726;48.852;9.152;2022-11-20T04:43:55;4.69;93.95
65972;SHT31;52726;48.852;9.152;2022-11-20T04:46:25;4.68;94.00
65972;SHT31;52726;48.852;9.152;2022-11-20T04:48:50;4.68;93.98
65972;SHT31;52726;48.852;9.152;2022-11-20T04:51:16;4.72;93.25
65972;SHT31;52726;48.852;9.152;2022-11-20T04:53:41;4.70;92.74
65972;SHT31;52726;48.852;9.152;2022-11-20T04:56:08;4.72;92.87
65972;SHT31;52726;48.852;9.152;2022-11-20T04:58:34;4.77;93.15
65972;SHT31;52726;48.852;9.152;2022-11-20T05:01:04;4.79;93.21
65972;SHT31;52726;48.852;9.152;2022-11-20T05:03:30;4.80;93.31
65972;SHT31;52726;48.852;9.152;2022-11-20T05:05:56;4.80;93.42
65972;SHT31;52726;48.852;9.152;2022-11-20T05:08:21;4.83;93.57
65972;SHT31;52726;48.852;9.152;2022-11-20T05:10:47;4.81;93.65
65972;SHT31;52726;48.852;9.152;2022-11-20T05:13:12;4.83;93.41
65972;SHT31;52726;48.852;9.152;2022-11-20T05:15:37;4.83;93.71
65972;SHT31;52726;48.852;9.152;2022-11-20T05:18:03;4.79;93.10
65972;SHT31;52726;48.852;9.152;2022-11-20T05:20:28;4.83;93.53
65972;SHT31;52726;48.852;9.152;2022-11-20T05:22:56;4.84;93.53
65972;SHT31;52726;48.852;9.152;2022-11-20T05:25:22;4.83;93.64
65972;SHT31;52726;48.852;9.152;2022-11-20T05:27:47;4.83;93.86
65972;SHT31;52726;48.852;9.152;2022-11-20T05:30:13;4.87;93.75
65972;SHT31;52726;48.852;9.152;2022-11-20T05:32:38;4.84;93.73
65972;SHT31;52726;48.852;9.152;2022-11-20T05:35:04;4.84;93.50
65972;SHT31;52726;48.852;9.152;2022-11-20T05:37:29;4.89;93.09
65972;SHT31;52726;48.852;9.152;2022-11-20T05:39:55;4.89;92.60
65972;SHT31;52726;48.852;9.152;2022-11-20T05:42:20;4.91;93.26
65972;SHT31;52726;48.852;9.152;2022-11-20T05:44:58;4.94;92.64
65972;SHT31;52726;48.852;9.152;2022-11-20T05:47:24;4.99;92.93
65972;SHT31;52726;48.852;9.152;2022-11-20T05:49:50;4.99;92.40
65972;SHT31;52726;48.852;9.152;2022-11-20T05:52:15;5.01;92.51
65972;SHT31;52726;48.852;9.152;2022-11-20T05:54:40;5.04;92.31
65972;SHT31;52726;48.852;9.152;2022-11-20T05:57:06;5.08;91.86
65972;SHT31;52726;48.852;9.152;2022-11-20T05:59:31;5.08;91.84
65972;SHT31;52726;48.852;9.152;2022-11-20T06:01:56;5.11;92.10
65972;SHT31;52726;48.852;9.152;2022-11-20T06:04:22;5.10;91.74
65972;SHT31;52726;48.852;9.152;2022-11-20T06:06:47;5.13;92.03
65972;SHT31;52726;48.852;9.152;2022-11-20T06:09:12;5.13;91.82
65972;SHT31;52726;48.852;9.152;2022-11-20T06:11:37;5.11;91.77
65972;SHT31;52726;48.852;9.152;2022-11-20T06:14:03;5.17;91.88
65972;SHT31;52726;48.852;9.152;2022-11-20T06:16:28;5.14;91.60
65972;SHT31;52726;48.852;9.152;2022-11-20T06:18:54;5.17;91.54
65972;SHT31;52726;48.852;9.152;2022-11-20T06:21:21;5.16;91.41
65972;SHT31;52726;48.852;9.152;2022-11-20T06:23:47;5.17;91.40
65972;SHT31;52726;48.852;9.152;2022-11-20T06:26:19;5.13;91.61
65972;SHT31;52726;48.852;9.152;2022-11-20T06:28:46;5.13;91.53
65972;SHT31;52726;48.852;9.152;2022-11-20T06:31:13;5.16;91.53
65972;SHT31;52726;48.852;9.152;2022-11-20T06:33:39;5.14;91.68
65972;SHT31;52726;48.852;9.152;2022-11-20T06:36:05;5.13;91.49
65972;SHT31;52726;48.852;9.152;2022-11-20T06:38:31;5.16;91.51
65972;SHT31;52726;48.852;9.152;2022-11-20T06:40:56;5.14;91.24
65972;SHT31;52726;48.852;9.152;2022-11-20T06:43:22;5.16;91.36
65972;SHT31;52726;48.852;9.152;2022-11-20T06:45:55;5.20;90.88
65972;SHT31;52726;48.852;9.152;2022-11-20T06:48:22;5.21;91.21
65972;SHT31;52726;48.852;9.152;2022-11-20T06:50:47;5.21;91.14
65972;SHT31;52726;48.852;9.152;2022-11-20T06:53:13;5.23;91.20
65972;SHT31;52726;48.852;9.152;2022-11-20T06:55:45;5.21;91.08
65972;SHT31;52726;48.852;9.152;2022-11-20T06:58:12;5.27;90.89
65972;SHT31;52726;48.852;9.152;2022-11-20T07:00:37;5.24;90.99
65972;SHT31;52726;48.852;9.152;2022-11-20T07:03:04;5.24;90.91
65972;SHT31;52726;48.852;9.152;2022-11-20T07:05:29;5.34;89.83
65972;SHT31;52726;48.852;9.152;2022-11-20T07:07:56;5.38;90.05
65972;SHT31;52726;48.852;9.152;2022-11-20T07:10:21;5.38;90.42
65972;SHT31;52726;48.852;9.152;2022-11-20T07:12:51;5.38;90.40
65972;SHT31;52726;48.852;9.152;2022-11-20T07:15:20;5.39;90.34
65972;SHT31;52726;48.852;9.152;2022-11-20T07:17:46;5.41;90.61
65972;SHT31;52726;48.852;9.152;2022-11-20T07:20:12;5.45;90.63
65972;SHT31;52726;48.852;9.152;2022-11-20T07:22:38;5.44;90.45
65972;SHT31;52726;48.852;9.152;2022-11-20T07:25:04;5.49;90.22
65972;SHT31;52726;48.852;9.152;2022-11-20T07:27:30;5.51;90.56
65972;SHT31;52726;48.852;9.152;2022-11-20T07:29:55;5.51;90.30
65972;SHT31;52726;48.852;9.152;2022-11-20T07:32:22;5.82;89.99
65972;SHT31;52726;48.852;9.152;2022-11-20T07:34:47;5.79;90.07
65972;SHT31;52726;48.852;9.152;2022-11-20T07:37:13;5.77;90.03
65972;SHT31;52726;48.852;9.152;2022-11-20T07:39:39;5.90;90.20
65972;SHT31;52726;48.852;9.152;2022-11-20T07:42:05;6.03;89.75
65972;SHT31;52726;48.852;9.152;2022-11-20T07:44:31;5.99;90.01
65972;SHT31;52726;48.852;9.152;2022-11-20T07:46:56;6.00;90.44
65972;SHT31;52726;48.852;9.152;2022-11-20T07:49:22;5.97;90.64
65972;SHT31;52726;48.852;9.152;2022-11-20T07:51:50;5.87;89.96
65972;SHT31;52726;48.852;9.152;2022-11-20T07:54:16;5.89;90.46
65972;SHT31;52726;48.852;9.152;2022-11-20T07:56:41;5.83;90.39
65972;SHT31;52726;48.852;9.152;2022-11-20T07:59:06;5.82;90.23
65972;SHT31;52726;48.852;9.152;2022-11-20T08:01:32;5.83;90.29
65972;SHT31;52726;48.852;9.152;2022-11-20T08:03:57;5.90;90.11
65972;SHT31;52726;48.852;9.152;2022-11-20T08:06:22;5.93;90.10
65972;SHT31;52726;48.852;9.152;2022-11-20T08:08:50;5.99;90.75
65972;SHT31;52726;48.852;9.152;2022-11-20T08:11:15;6.02;91.17
65972;SHT31;52726;48.852;9.152;2022-11-20T08:13:59;6.07;90.56
65972;SHT31;52726;48.852;9.152;2022-11-20T08:16:44;6.14;90.42
65972;SHT31;52726;48.852;9.152;2022-11-20T08:19:11;6.18;89.75
65972;SHT31;52726;48.852;9.152;2022-11-20T08:21:37;6.24;89.11
65972;SHT31;52726;48.852;9.152;2022-11-20T08:24:02;6.34;89.84
65972;SHT31;52726;48.852;9.152;2022-11-20T08:26:28;6.40;89.25
65972;SHT31;52726;48.852;9.152;2022-11-20T08:28:55;6.48;88.85
65972;SHT31;52726;48.852;9.152;2022-11-20T08:31:21;6.52;88.83
65972;SHT31;52726;48.852;9.152;2022-11-20T08:33:46;6.56;88.80
65972;SHT31;52726;48.852;9.152;2022-11-20T08:36:12;6.61;88.46
65972;SHT31;52726;48.852;9.152;2022-11-20T08:38:38;6.67;88.51
65972;SHT31;52726;48.852;9.152;2022-11-20T08:41:04;6.73;88.11
65972;SHT31;52726;48.852;9.152;2022-11-20T08:46:18;6.89;87.82
65972;SHT31;52726;48.852;9.152;2022-11-20T08:48:44;6.89;87.63
65972;SHT31;52726;48.852;9.152;2022-11-20T08:51:10;6.92;86.78
65972;SHT31;52726;48.852;9.152;2022-11-20T08:53:36;6.88;86.14
65972;SHT31;52726;48.852;9.152;2022-11-20T08:56:01;6.86;86.62
65972;SHT31;52726;48.852;9.152;2022-11-20T08:58:26;6.85;87.01
65972;SHT31;52726;48.852;9.152;2022-11-20T09:00:52;6.82;85.76
65972;SHT31;52726;48.852;9.152;2022-11-20T09:03:17;6.80;86.20
65972;SHT31;52726;48.852;9.152;2022-11-20T09:05:43;6.83;86.65
65972;SHT31;52726;48.852;9.152;2022-11-20T09:08:08;6.85;87.04
65972;SHT31;52726;48.852;9.152;2022-11-20T09:10:34;6.90;87.42
65972;SHT31;52726;48.852;9.152;2022-11-20T09:13:00;6.92;86.79
65972;SHT31;52726;48.852;9.152;2022-11-20T09:15:25;6.89;86.31
65972;SHT31;52726;48.852;9.152;2022-11-20T09:18:01;6.92;87.49
65972;SHT31;52726;48.852;9.152;2022-11-20T09:20:29;6.90;86.72
65972;SHT31;52726;48.852;9.152;2022-11-20T09:22:55;6.88;87.35
65972;SHT31;52726;48.852;9.152;2022-11-20T09:25:21;6.85;87.03
65972;SHT31;52726;48.852;9.152;2022-11-20T09:27:46;6.82;87.14
65972;SHT31;52726;48.852;9.152;2022-11-20T09:30:13;6.83;87.10
65972;SHT31;52726;48.852;9.152;2022-11-20T09:32:39;6.78;86.62
65972;SHT31;52726;48.852;9.152;2022-11-20T09:35:05;6.82;87.77
65972;SHT31;52726;48.852;9.152;2022-11-20T09:37:31;6.82;87.81
65972;SHT31;52726;48.852;9.152;2022-11-20T09:39:56;6.85;88.13
65972;SHT31;52726;48.852;9.152;2022-11-20T09:42:25;6.79;88.44
65972;SHT31;52726;48.852;9.152;2022-11-20T09:47:54;6.80;87.98
65972;SHT31;52726;48.852;9.152;2022-11-20T09:50:44;6.85;88.21
65972;SHT31;52726;48.852;9.152;2022-11-20T09:56:03;6.80;87.81
65972;SHT31;52726;48.852;9.152;2022-11-20T09:58:41;6.75;87.79
65972;SHT31;52726;48.852;9.152;2022-11-20T10:01:26;6.73;89.28
65972;SHT31;52726;48.852;9.152;2022-11-20T10:04:31;6.72;89.90
65972;SHT31;52726;48.852;9.152;2022-11-20T10:07:06;6.67;90.61
65972;SHT31;52726;48.852;9.152;2022-11-20T10:09:38;6.56;90.63
65972;SHT31;52726;48.852;9.152;2022-11-20T10:17:38;6.49;90.87
65972;SHT31;52726;48.852;9.152;2022-11-20T10:20:17;6.44;90.59
65972;SHT31;52726;48.852;9.152;2022-11-20T10:25:39;6.45;91.80
65972;SHT31;52726;48.852;9.152;2022-11-20T10:28:18;6.45;91.87
65972;SHT31;52726;48.852;9.152;2022-11-20T10:30:55;6.45;92.30
65972;SHT31;52726;48.852;9.152;2022-11-20T10:33:23;6.51;92.05
65972;SHT31;52726;48.852;9.152;2022-11-20T10:36:33;6.45;91.30
65972;SHT31;52726;48.852;9.152;2022-11-20T10:41:31;6.46;91.63
65972;SHT31;52726;48.852;9.152;2022-11-20T10:46:36;6.35;91.28
65972;SHT31;52726;48.852;9.152;2022-11-20T10:49:05;6.20;92.09
65972;SHT31;52726;48.852;9.152;2022-11-20T10:51:44;6.21;92.34
65972;SHT31;52726;48.852;9.152;2022-11-20T10:54:31;6.24;92.44
65972;SHT31;52726;48.852;9.152;2022-11-20T10:57:31;6.30;92.50
65972;SHT31;52726;48.852;9.152;2022-11-20T11:00:06;6.31;92.97
65972;SHT31;52726;48.852;9.152;2022-11-20T11:02:48;6.38;93.40
65972;SHT31;52726;48.852;9.152;2022-11-20T11:07:49;6.46;93.74
65972;SHT31;52726;48.852;9.152;2022-11-20T11:10:18;6.53;93.93
65972;SHT31;52726;48.852;9.152;2022-11-20T11:12:45;6.55;93.99
65972;SHT31;52726;48.852;9.152;2022-11-20T11:15:38;6.62;94.09
65972;SHT31;52726;48.852;9.152;2022-11-20T11:18:04;6.64;93.57
65972;SHT31;52726;48.852;9.152;2022-11-20T11:20:30;6.75;93.83
65972;SHT31;52726;48.852;9.152;2022-11-20T11:22:58;6.75;92.73
65972;SHT31;52726;48.852;9.152;2022-11-20T11:25:31;6.97;93.41
65972;SHT31;52726;48.852;9.152;2022-11-20T11:28:20;7.00;93.23
65972;SHT31;52726;48.852;9.152;2022-11-20T11:30:46;7.09;92.92
65972;SHT31;52726;48.852;9.152;2022-11-20T11:33:30;7.13;92.56
65972;SHT31;52726;48.852;9.152;2022-11-20T11:36:04;7.16;92.05
65972;SHT31;52726;48.852;9.152;2022-11-20T11:38:43;7.21;91.69
65972;SHT31;52726;48.852;9.152;2022-11-20T11:41:16;7.27;91.74
65972;SHT31;52726;48.852;9.152;2022-11-20T11:43:52;7.34;92.13
65972;SHT31;52726;48.852;9.152;2022-11-20T11:46:36;7.44;90.18
65972;SHT31;52726;48.852;9.152;2022-11-20T11:54:30;7.57;87.96
65972;SHT31;52726;48.852;9.152;2022-11-20T11:57:00;7.69;88.08
65972;SHT31;52726;48.852;9.152;2022-11-20T11:59:33;7.93;87.59
65972;SHT31;52726;48.852;9.152;2022-11-20T12:02:22;8.02;86.60
65972;SHT31;52726;48.852;9.152;2022-11-20T12:07:41;8.07;84.66
65972;SHT31;52726;48.852;9.152;2022-11-20T12:10:21;8.10;84.22
65972;SHT31;52726;48.852;9.152;2022-11-20T12:13:03;8.14;84.02
65972;SHT31;52726;48.852;9.152;2022-11-20T12:15:31;8.07;84.73
65972;SHT31;52726;48.852;9.152;2022-11-20T12:17:57;7.99;82.48
65972;SHT31;52726;48.852;9.152;2022-11-20T12:20:27;8.00;82.71
65972;SHT31;52726;48.852;9.152;2022-11-20T12:23:01;8.00;83.06
65972;SHT31;52726;48.852;9.152;2022-11-20T12:25:34;8.07;83.23
65972;SHT31;52726;48.852;9.152;2022-11-20T12:33:53;8.14;78.96
65972;SHT31;52726;48.852;9.152;2022-11-20T12:51:26;8.23;75.83
65972;SHT31;52726;48.852;9.152;2022-11-20T12:56:54;8.22;75.47
65972;SHT31;52726;48.852;9.152;2022-11-20T13:07:57;7.78;78.11
65972;SHT31;52726;48.852;9.152;2022-11-20T13:10:42;7.66;78.81
65972;SHT31;52726;48.852;9.152;2022-11-20T13:13:17;7.62;78.20
65972;SHT31;52726;48.852;9.152;2022-11-20T13:18:15;7.68;79.64
65972;SHT31;52726;48.852;9.152;2022-11-20T13:20:44;7.61;77.49
65972;SHT31;52726;48.852;9.152;2022-11-20T13:23:11;7.58;78.64
65972;SHT31;52726;48.852;9.152;2022-11-20T13:25:39;7.59;77.46
65972;SHT31;52726;48.852;9.152;2022-11-20T13:30:48;7.79;76.26
65972;SHT31;52726;48.852;9.152;2022-11-20T13:33:29;8.05;74.25
65972;SHT31;52726;48.852;9.152;2022-11-20T13:38:28;8.29;74.31
65972;SHT31;52726;48.852;9.152;2022-11-20T13:40:59;8.33;73.56
65972;SHT31;52726;48.852;9.152;2022-11-20T13:43:40;8.37;73.92
65972;SHT31;52726;48.852;9.152;2022-11-20T13:46:09;8.20;74.48
65972;SHT31;52726;48.852;9.152;2022-11-20T13:48:39;8.07;74.51
65972;SHT31;52726;48.852;9.152;2022-11-20T13:51:32;7.95;74.41
65972;SHT31;52726;48.852;9.152;2022-11-20T13:55:02;7.85;74.92
65972;SHT31;52726;48.852;9.152;2022-11-20T14:02:20;7.89;76.26
65972;SHT31;52726;48.852;9.152;2022-11-20T14:04:48;7.81;75.89
65972;SHT31;52726;48.852;9.152;2022-11-20T14:07:16;7.74;75.99
65972;SHT31;52726;48.852;9.152;2022-11-20T14:10:18;7.68;76.95
65972;SHT31;52726;48.852;9.152;2022-11-20T14:12:47;7.59;76.75
65972;SHT31;52726;48.852;9.152;2022-11-20T14:15:33;7.52;78.05
65972;SHT31;52726;48.852;9.152;2022-11-20T14:17:59;7.48;78.18
65972;SHT31;52726;48.852;9.152;2022-11-20T14:20:27;7.40;78.84
65972;SHT31;52726;48.852;9.152;2022-11-20T14:22:54;7.32;78.87
65972;SHT31;52726;48.852;9.152;2022-11-20T14:25:24;7.26;78.56
65972;SHT31;52726;48.852;9.152;2022-11-20T14:28:00;7.23;79.19
65972;SHT31;52726;48.852;9.152;2022-11-20T14:33:03;7.17;78.96
65972;SHT31;52726;48.852;9.152;2022-11-20T14:35:33;7.13;78.94
65972;SHT31;52726;48.852;9.152;2022-11-20T14:38:00;7.09;78.93
65972;SHT31;52726;48.852;9.152;2022-11-20T14:40:29;7.10;79.05
65972;SHT31;52726;48.852;9.152;2022-11-20T14:42:56;7.04;79.69
65972;SHT31;52726;48.852;9.152;2022-11-20T14:45:22;7.06;79.61
65972;SHT31;52726;48.852;9.152;2022-11-20T14:47:49;7.00;79.99
65972;SHT31;52726;48.852;9.152;2022-11-20T14:50:22;6.96;80.23
65972;SHT31;52726;48.852;9.152;2022-11-20T14:52:58;6.93;80.13
65972;SHT31;52726;48.852;9.152;2022-11-20T14:55:30;6.92;80.53
65972;SHT31;52726;48.852;9.152;2022-11-20T14:57:58;6.89;80.43
65972;SHT31;52726;48.852;9.152;2022-11-20T15:00:25;6.85;80.91
65972;SHT31;52726;48.852;9.152;2022-11-20T15:02:51;6.85;80.58
65972;SHT31;52726;48.852;9.152;2022-11-20T15:05:19;6.79;80.76
65972;SHT31;52726;48.852;9.152;2022-11-20T15:07:48;6.79;80.95
65972;SHT31;52726;48.852;9.152;2022-11-20T15:10:25;6.75;81.52
65972;SHT31;52726;48.852;9.152;2022-11-20T15:12:58;6.72;81.55
65972;SHT31;52726;48.852;9.152;2022-11-20T15:15:32;6.67;82.30
65972;SHT31;52726;48.852;9.152;2022-11-20T15:18:00;6.64;82.15
65972;SHT31;52726;48.852;9.152;2022-11-20T15:20:28;6.58;82.17
65972;SHT31;52726;48.852;9.152;2022-11-20T15:22:55;6.58;82.35
65972;SHT31;52726;48.852;9.152;2022-11-20T15:25:20;6.56;82.21
65972;SHT31;52726;48.852;9.152;2022-11-20T15:27:48;6.45;82.63
65972;SHT31;52726;48.852;9.152;2022-11-20T15:30:18;6.45;82.90
65972;SHT31;52726;48.852;9.152;2022-11-20T15:32:44;6.38;83.34
65972;SHT31;52726;48.852;9.152;2022-11-20T15:35:10;6.35;83.24
65972;SHT31;52726;48.852;9.152;2022-11-20T15:37:36;6.31;83.21
65972;SHT31;52726;48.852;9.152;2022-11-20T15:40:03;6.28;83.04
65972;SHT31;52726;48.852;9.152;2022-11-20T15:42:28;6.24;83.27
65972;SHT31;52726;48.852;9.152;2022-11-20T15:44:53;6.20;83.84
65972;SHT31;52726;48.852;9.152;2022-11-20T15:47:21;6.17;83.79
65972;SHT31;52726;48.852;9.152;2022-11-20T15:49:50;6.13;83.77
65972;SHT31;52726;48.852;9.152;2022-11-20T15:52:16;6.10;83.53
65972;SHT31;52726;48.852;9.152;2022-11-20T15:54:41;6.10;84.06
65972;SHT31;52726;48.852;9.152;2022-11-20T15:57:06;6.06;84.31
65972;SHT31;52726;48.852;9.152;2022-11-20T15:59:32;6.09;84.46
65972;SHT31;52726;48.852;9.152;2022-11-20T16:01:57;6.06;84.24
65972;SHT31;52726;48.852;9.152;2022-11-20T16:04:23;6.02;84.64
65972;SHT31;52726;48.852;9.152;2022-11-20T16:06:48;5.99;84.29
65972;SHT31;52726;48.852;9.152;2022-11-20T16:09:14;6.00;84.48
65972;SHT31;52726;48.852;9.152;2022-11-20T16:11:39;5.94;84.58
65972;SHT31;52726;48.852;9.152;2022-11-20T16:14:05;5.96;84.57
65972;SHT31;52726;48.852;9.152;2022-11-20T16:16:50;5.93;84.66
65972;SHT31;52726;48.852;9.152;2022-11-20T16:19:16;5.93;84.87
65972;SHT31;52726;48.852;9.152;2022-11-20T16:21:43;5.89;84.90
65972;SHT31;52726;48.852;9.152;2022-11-20T16:24:11;5.90;84.89
65972;SHT31;52726;48.852;9.152;2022-11-20T16:26:38;5.90;84.97
65972;SHT31;52726;48.852;9.152;2022-11-20T16:29:05;5.96;85.02
65972;SHT31;52726;48.852;9.152;2022-11-20T16:31:31;5.94;84.85
65972;SHT31;52726;48.852;9.152;2022-11-20T16:34:00;5.96;84.95
65972;SHT31;52726;48.852;9.152;2022-11-20T16:36:27;5.99;84.98
65972;SHT31;52726;48.852;9.152;2022-11-20T16:39:12;6.02;84.82
65972;SHT31;52726;48.852;9.152;2022-11-20T16:42:17;6.00;85.06
65972;SHT31;52726;48.852;9.152;2022-11-20T16:44:45;6.00;85.15
65972;SHT31;52726;48.852;9.152;2022-11-20T16:47:10;5.99;85.04
65972;SHT31;52726;48.852;9.152;2022-11-20T16:49:36;6.00;85.49
65972;SHT31;52726;48.852;9.152;2022-11-20T16:52:04;6.06;85.54
65972;SHT31;52726;48.852;9.152;2022-11-20T16:54:29;6.07;85.18
65972;SHT31;52726;48.852;9.152;2022-11-20T16:56:55;6.07;84.97
65972;SHT31;52726;48.852;9.152;2022-11-20T16:59:20;6.06;85.19
65972;SHT31;52726;48.852;9.152;2022-11-20T17:01:46;6.06;85.24
65972;SHT31;52726;48.852;9.152;2022-11-20T17:04:11;6.07;85.87
65972;SHT31;52726;48.852;9.152;2022-11-20T17:06:39;6.07;85.37
65972;SHT31;52726;48.852;9.152;2022-11-20T17:09:05;6.06;85.39
65972;SHT31;52726;48.852;9.152;2022-11-20T17:11:34;6.04;85.85
65972;SHT31;52726;48.852;9.152;2022-11-20T17:14:02;6.04;85.70
65972;SHT31;52726;48.852;9.152;2022-11-20T17:16:32;6.06;85.73
65972;SHT31;52726;48.852;9.152;2022-11-20T17:18:58;6.04;85.91